createdAt,value
2022-10-06T03:58:40.058Z,101681.19
2022-10-06T04:01:45.485Z,101678.44
2022-10-06T04:04:48.321Z,101678.38
2022-10-06T04:07:50.468Z,101682.88
2022-10-06T04:10:52.819Z,101686.00
2022-10-06T04:13:58.981Z,101686.00
2022-10-06T04:17:01.730Z,101689.09
2022-10-06T04:20:04.415Z,101690.91
2022-10-06T04:23:07.655Z,101690.06
2022-10-06T04:26:18.517Z,101690.22
2022-10-06T04:29:21.225Z,101692.25
2022-10-06T04:32:23.385Z,101696.44
2022-10-06T04:35:27.146Z,101694.97
2022-10-06T04:38:32.990Z,101696.31
2022-10-06T04:41:37.399Z,101703.81
2022-10-06T04:44:39.606Z,101694.78
2022-10-06T04:47:42.284Z,101694.56
2022-10-06T04:50:53.754Z,101691.69
2022-10-06T04:53:56.322Z,101690.81
2022-10-06T04:56:58.778Z,101691.78
2022-10-06T05:00:20.081Z,101689.25
2022-10-06T05:03:22.429Z,101686.25
2022-10-06T05:06:29.901Z,101690.00
2022-10-06T05:09:32.532Z,101694.25
2022-10-06T05:12:35.782Z,101703.84
2022-10-06T05:15:39.486Z,101700.81
2022-10-06T05:18:42.618Z,101692.50
2022-10-06T05:21:44.715Z,101691.94
2022-10-06T05:24:47.501Z,101695.34
2022-10-06T05:27:49.596Z,101698.28
2022-10-06T05:31:04.365Z,101704.75
2022-10-06T05:34:07.270Z,101709.62
2022-10-06T05:37:10.051Z,101706.19
2022-10-06T05:40:12.362Z,101698.78
2022-10-06T05:43:15.805Z,101707.47
2022-10-06T05:46:21.068Z,101710.50
2022-10-06T05:49:24.319Z,101704.16
2022-10-06T05:52:26.675Z,101706.16
2022-10-06T05:55:29.486Z,101701.72
2022-10-06T05:58:33.105Z,101715.00
2022-10-06T06:01:42.137Z,101720.19
2022-10-06T06:04:45.404Z,101714.53
2022-10-06T06:07:48.261Z,101721.34
2022-10-06T06:10:51.001Z,101723.12
2022-10-06T06:13:57.951Z,101723.12
2022-10-06T06:17:00.536Z,101724.47
2022-10-06T06:20:03.767Z,101730.62
2022-10-06T06:23:06.498Z,101734.19
2022-10-06T06:26:11.533Z,101738.47
2022-10-06T06:29:14.810Z,101738.31
2022-10-06T06:32:18.147Z,101747.75
2022-10-06T06:35:20.629Z,101748.00
2022-10-06T06:38:22.912Z,101753.62
2022-10-06T06:41:27.676Z,101763.31
2022-10-06T06:44:31.037Z,101761.44
2022-10-06T06:47:34.956Z,101765.53
2022-10-06T06:50:38.277Z,101770.41
2022-10-06T06:53:41.020Z,101774.88
2022-10-06T06:56:45.611Z,101768.41
2022-10-06T06:59:48.246Z,101772.78
2022-10-06T07:03:00.658Z,101768.72
2022-10-06T07:06:11.705Z,101771.25
2022-10-06T07:09:14.339Z,101775.63
2022-10-06T07:12:17.641Z,101777.38
2022-10-06T07:15:38.913Z,101782.72
2022-10-06T07:19:00.270Z,101778.22
2022-10-06T07:22:27.219Z,101775.66
2022-10-06T07:25:29.703Z,101781.94
2022-10-06T07:28:32.233Z,101783.22
2022-10-06T07:31:36.258Z,101788.66
2022-10-06T07:34:39.473Z,101791.69
2022-10-06T07:37:42.098Z,101795.41
2022-10-06T07:40:46.492Z,101796.03
2022-10-06T07:44:07.956Z,101785.00
2022-10-06T07:47:10.937Z,101791.50
2022-10-06T07:50:14.592Z,101792.84
2022-10-06T07:53:17.833Z,101790.22
2022-10-06T07:56:21.350Z,101795.69
2022-10-06T07:59:23.885Z,101800.81
2022-10-06T08:02:30.182Z,101807.06
2022-10-06T08:05:35.348Z,101806.25
2022-10-06T08:08:37.841Z,101810.06
2022-10-06T08:11:40.628Z,101809.81
2022-10-06T08:14:42.697Z,101808.47
2022-10-06T08:17:45.627Z,101812.00
2022-10-06T08:20:47.776Z,101811.97
2022-10-06T08:23:51.402Z,101812.81
2022-10-06T08:26:53.855Z,101809.31
2022-10-06T08:29:57.142Z,101810.91
2022-10-06T08:32:59.179Z,101809.31
2022-10-06T08:36:16.830Z,101813.06
2022-10-06T08:39:18.869Z,101813.03
2022-10-06T08:42:33.866Z,101804.91
2022-10-06T08:45:42.695Z,101803.25
2022-10-06T08:48:45.078Z,101807.03
2022-10-06T08:51:53.804Z,101812.69
2022-10-06T08:55:26.967Z,101804.59
2022-10-06T08:58:38.255Z,101814.31
2022-10-06T09:01:45.034Z,101813.19
2022-10-06T09:04:49.528Z,101815.81
2022-10-06T09:08:12.313Z,101810.16
2022-10-06T09:11:26.277Z,101808.75
2022-10-06T09:14:39.079Z,101809.06
2022-10-06T09:18:00.243Z,101806.81
2022-10-06T09:21:04.714Z,101813.53
2022-10-06T09:24:18.788Z,101808.34
2022-10-06T09:27:24.054Z,101806.44
2022-10-06T09:30:27.684Z,101809.94
2022-10-06T09:33:38.609Z,101810.72
2022-10-06T09:37:01.746Z,101811.72
2022-10-06T09:40:33.558Z,101811.91
2022-10-06T09:43:35.638Z,101812.84
2022-10-06T09:46:41.776Z,101820.97
2022-10-06T09:49:44.043Z,101810.88
2022-10-06T09:53:03.602Z,101809.81
2022-10-06T09:56:18.932Z,101821.22
2022-10-06T09:59:25.295Z,101816.78
2022-10-06T10:02:39.474Z,101822.38
2022-10-06T10:05:54.828Z,101830.50
2022-10-06T10:09:22.708Z,101821.78
2022-10-06T10:12:29.994Z,101826.03
2022-10-06T10:15:49.201Z,101814.34
2022-10-06T10:18:51.972Z,101809.19
2022-10-06T10:21:57.597Z,101806.44
2022-10-06T10:25:29.253Z,101810.25
2022-10-06T10:28:51.694Z,101802.31
2022-10-06T10:32:00.735Z,101809.19
2022-10-06T10:35:18.654Z,101804.00
2022-10-06T10:38:23.791Z,101794.19
2022-10-06T10:41:30.674Z,101787.03
2022-10-06T10:44:44.458Z,101790.31
2022-10-06T10:47:49.276Z,101794.50
2022-10-06T10:50:58.779Z,101798.00
2022-10-06T10:54:05.856Z,101793.25
2022-10-06T10:57:15.061Z,101794.09
2022-10-06T11:00:26.570Z,101793.53
2022-10-06T11:03:28.890Z,101790.09
2022-10-06T11:06:54.251Z,101796.22
2022-10-06T11:10:13.754Z,101795.75
2022-10-06T11:13:37.160Z,101785.97
2022-10-06T11:17:03.627Z,101790.00
2022-10-06T11:20:23.831Z,101789.16
2022-10-06T11:23:45.388Z,101790.25
2022-10-06T11:27:06.800Z,101784.69
2022-10-06T11:30:15.527Z,101785.22
2022-10-06T11:33:40.785Z,101784.41
2022-10-06T11:36:53.910Z,101782.34
2022-10-06T11:40:16.054Z,101772.37
2022-10-06T11:43:40.391Z,101780.31
2022-10-06T11:46:53.009Z,101765.31
2022-10-06T11:49:56.062Z,101762.72
2022-10-06T11:52:58.605Z,101768.31
2022-10-06T11:56:19.260Z,101755.97
2022-10-06T11:59:26.952Z,101754.75
2022-10-06T12:02:32.263Z,101751.44
2022-10-06T12:05:55.702Z,101757.50
2022-10-06T12:08:57.309Z,101756.22
2022-10-06T12:12:14.692Z,101759.63
2022-10-06T12:19:18.627Z,101753.09
2022-10-06T12:22:46.072Z,101754.22
2022-10-06T12:26:04.420Z,101744.75
2022-10-06T12:29:25.853Z,101754.00
2022-10-06T12:32:49.069Z,101743.94
2022-10-06T12:36:01.558Z,101747.66
2022-10-06T12:39:20.914Z,101745.56
2022-10-06T12:42:29.903Z,101750.72
2022-10-06T12:45:32.487Z,101744.97
2022-10-06T12:48:56.010Z,101741.56
2022-10-06T12:52:15.605Z,101729.41
2022-10-06T12:55:40.133Z,101733.62
2022-10-06T12:58:42.435Z,101730.59
2022-10-06T13:01:44.527Z,101731.13
2022-10-06T13:04:54.974Z,101721.25
2022-10-06T13:08:20.397Z,101719.25
2022-10-06T13:11:26.979Z,101724.75
2022-10-06T13:14:29.023Z,101722.88
2022-10-06T13:17:31.519Z,101721.25
2022-10-06T13:20:47.600Z,101723.00
2022-10-06T13:23:50.825Z,101718.94
2022-10-06T13:26:53.369Z,101713.31
2022-10-06T13:30:12.588Z,101716.00
2022-10-06T13:33:14.664Z,101701.34
2022-10-06T13:36:17.516Z,101713.31
2022-10-06T13:39:22.232Z,101707.22
2022-10-06T13:42:25.561Z,101702.78
2022-10-06T13:45:28.626Z,101701.47
2022-10-06T13:48:31.697Z,101709.81
2022-10-06T13:51:33.781Z,101703.56
2022-10-06T13:54:44.365Z,101705.81
2022-10-06T13:57:49.195Z,101704.50
2022-10-06T14:00:55.899Z,101702.62
2022-10-06T14:04:14.702Z,101699.44
2022-10-06T14:07:17.281Z,101708.59
2022-10-06T14:10:52.165Z,101705.91
2022-10-06T14:14:02.945Z,101712.13
2022-10-06T14:17:06.026Z,101714.03
2022-10-06T14:20:32.749Z,101716.22
2022-10-06T14:23:49.914Z,101718.69
2022-10-06T14:26:55.573Z,101717.84
2022-10-06T14:29:57.953Z,101719.06
2022-10-06T14:33:00.161Z,101726.88
2022-10-06T14:36:02.801Z,101716.94
2022-10-06T14:39:06.313Z,101717.44
2022-10-06T14:42:08.890Z,101720.16
2022-10-06T14:45:13.103Z,101726.47
2022-10-06T14:48:15.409Z,101721.66
2022-10-06T14:51:18.512Z,101721.16
2022-10-06T14:54:21.504Z,101730.12
2022-10-06T14:57:23.562Z,101729.41
2022-10-06T15:00:28.840Z,101730.50
2022-10-06T15:03:31.668Z,101734.31
2022-10-06T15:06:52.915Z,101731.31
2022-10-06T15:09:55.459Z,101740.66
2022-10-06T15:12:57.994Z,101740.75
2022-10-06T15:16:00.064Z,101735.09
2022-10-06T15:19:05.871Z,101743.56
2022-10-06T15:22:08.971Z,101740.31
2022-10-06T15:25:31.262Z,101742.03
2022-10-06T15:28:52.643Z,101748.66
2022-10-06T15:31:55.242Z,101754.06
2022-10-06T15:34:57.812Z,101754.00
2022-10-06T15:38:00.094Z,101760.22
2022-10-06T15:41:04.503Z,101763.34
2022-10-06T15:44:08.407Z,101763.06
